San Salvador — WDH3551 — position and weather

sailwx.info

Track history (hours):
 
Tides and Currents Weather Stations Pressure Air Temp Water Temp Dewpoint Dewpoint Depression Visibility Wind Speed Wind Dir Waves Ship Positions

San Salvador

Owner: Buffalo Marine Services Inc., Houston, TX. More information available from US FCC via Universal Licensing System.

Last reported at 2018-Jul-20 12:22 UTC. Time now 2018-Jul-20 16:40 UTC.
Position N 29°57' W 090°23'.

Length 25 m.

Type: Tug. MMSI: 367608470.

Date/timePositionNaut miles runAvg speedWind from/ knotsBaromVisibWave heightAir tempDewpointWater temp
2018-Jul-20 12:22N 29°57' W 090°23'0 0.0
2018-Jul-20 11:48N 29°57' W 090°23'0 0.0
2018-Jul-20 11:23N 29°57' W 090°23'  
2018-Jul-15 04:48N 29°35' W 090°37'2 5.3
2018-Jul-15 04:24N 29°36' W 090°39'2 4.9
2018-Jul-15 04:00N 29°36' W 090°41'1 2.5
2018-Jul-15 03:30N 29°36' W 090°43'2 4.0
2018-Jul-15 03:00N 29°34' W 090°43'2 3.3
2018-Jul-15 02:27N 29°33' W 090°45'0 0.1
2018-Jul-15 02:00N 29°33' W 090°45'0 0.0
2018-Jul-15 01:29N 29°33' W 090°45'0 0.0
2018-Jul-15 01:00N 29°33' W 090°45'0 0.1
2018-Jul-15 00:30N 29°33' W 090°45'0 0.4
2018-Jul-15 00:00N 29°33' W 090°45'61 3.3
2018-Jul-14 05:52N 29°51' W 091°52'2 6.1
2018-Jul-14 05:30N 29°51' W 091°55'3 5.2
2018-Jul-14 05:00N 29°50' W 091°58'3 5.2
2018-Jul-14 04:30N 29°50' W 092°00'3 5.1
2018-Jul-14 04:00N 29°49' W 092°03'2 4.8
2018-Jul-14 03:30N 29°48' W 092°06'2 4.8
2018-Jul-14 03:00N 29°47' W 092°08'2 4.3
2018-Jul-14 02:30N 29°47' W 092°11'1 2.9
2018-Jul-14 01:59N 29°47' W 092°12'1 1.6
2018-Jul-14 01:30N 29°47' W 092°13'0 0.8
2018-Jul-14 01:00N 29°48' W 092°14'0 0.3
2018-Jul-14 00:30N 29°48' W 092°14'0 0.0
2018-Jul-14 00:00N 29°48' W 092°14'0 0.1
2018-Jul-13 23:30N 29°48' W 092°14'2 3.1
2018-Jul-13 23:00N 29°48' W 092°15'2 4.8
2018-Jul-13 22:30N 29°50' W 092°18'2 3.6
2018-Jul-13 22:00N 29°50' W 092°20'41 4.2
2018-Jul-13 12:04N 29°56' W 093°07'0 3.0
2018-Jul-13 11:58N 29°56' W 093°07'2 3.6
2018-Jul-13 11:30N 29°56' W 093°09'2 3.2
2018-Jul-13 11:00N 29°57' W 093°10'2 3.4
2018-Jul-13 10:30N 29°58' W 093°12'2 3.1
2018-Jul-13 10:00N 29°60' W 093°13'2 3.5
2018-Jul-13 09:30N 30°01' W 093°14'2 3.5
2018-Jul-13 09:00N 30°02' W 093°15'2 3.3
2018-Jul-13 08:30N 30°04' W 093°16'2 3.7
2018-Jul-13 08:00N 30°05' W 093°17'1 1.8
2018-Jul-13 07:30N 30°06' W 093°18'0 0.7
2018-Jul-13 07:00N 30°06' W 093°18'0 0.2
2018-Jul-13 06:30N 30°06' W 093°18'0 0.0
2018-Jul-13 06:00N 30°06' W 093°18'0 0.0
2018-Jul-13 05:30N 30°06' W 093°18'0 0.0
2018-Jul-13 05:00N 30°06' W 093°18'0 0.0
2018-Jul-13 04:30N 30°06' W 093°18'0 0.0
2018-Jul-13 04:00N 30°06' W 093°18'0 0.6
2018-Jul-13 03:29N 30°06' W 093°19'2 3.6
2018-Jul-13 03:00N 30°05' W 093°20'2 3.6
2018-Jul-13 02:30N 30°04' W 093°22'2 3.7
2018-Jul-13 02:00N 30°04' W 093°24'1 1.4
2018-Jul-13 01:30N 30°04' W 093°25'0 0.0
2018-Jul-13 01:00N 30°04' W 093°25'0 0.0
2018-Jul-13 00:30N 30°04' W 093°25'0 0.0
2018-Jul-13 00:00N 30°04' W 093°25'0 0.0
2018-Jul-12 23:30N 30°04' W 093°25'0 0.0
2018-Jul-12 23:00N 30°04' W 093°25'0 0.0
2018-Jul-12 22:30N 30°04' W 093°25'0 0.0
2018-Jul-12 22:00N 30°04' W 093°25'0 0.0
2018-Jul-12 21:30N 30°04' W 093°25'0 0.0
2018-Jul-12 21:00N 30°04' W 093°25'0 0.0
2018-Jul-12 20:30N 30°04' W 093°25'0 0.0
2018-Jul-12 20:00N 30°04' W 093°25'0 0.0
2018-Jul-12 19:30N 30°04' W 093°25'0 0.0
2018-Jul-12 19:00N 30°04' W 093°25'0 0.0
2018-Jul-12 18:30N 30°04' W 093°25'0 0.0
2018-Jul-12 18:00N 30°04' W 093°25'0 0.0
2018-Jul-12 17:30N 30°04' W 093°25'0 0.0
2018-Jul-12 17:00N 30°04' W 093°25'0 0.0
2018-Jul-12 16:30N 30°04' W 093°25'0 0.0
2018-Jul-12 16:00N 30°04' W 093°25'0 0.1
2018-Jul-12 15:30N 30°04' W 093°25'0 0.0
2018-Jul-12 15:00N 30°04' W 093°25'0 0.0
2018-Jul-12 14:30N 30°04' W 093°25'0 0.0
2018-Jul-12 14:00N 30°04' W 093°25'0 0.0
2018-Jul-12 13:30N 30°04' W 093°25'0 0.1
2018-Jul-12 13:00N 30°04' W 093°25'1 1.3
2018-Jul-12 12:30N 30°04' W 093°25'0 0.0
2018-Jul-12 12:00N 30°04' W 093°25'0 0.0
2018-Jul-12 11:30N 30°04' W 093°25'0 0.0
2018-Jul-12 11:00N 30°04' W 093°25'0 0.0
2018-Jul-12 10:29N 30°04' W 093°25'0 0.0
2018-Jul-12 10:00N 30°04' W 093°25'0 0.0
2018-Jul-12 09:30N 30°04' W 093°25'0 0.0
2018-Jul-12 09:00N 30°04' W 093°25'0 0.0
2018-Jul-12 08:30N 30°04' W 093°25'0 0.0
2018-Jul-12 08:00N 30°04' W 093°25'0 0.0
2018-Jul-12 07:30N 30°04' W 093°25'0 0.0
2018-Jul-12 07:00N 30°04' W 093°25'0 0.0
2018-Jul-12 06:30N 30°04' W 093°25'0 0.0
2018-Jul-12 06:00N 30°04' W 093°25'0 0.0
2018-Jul-12 05:30N 30°04' W 093°25'0 0.0
2018-Jul-12 05:00N 30°04' W 093°25'0 0.0
2018-Jul-12 04:30N 30°04' W 093°25'0 0.0
2018-Jul-12 04:00N 30°04' W 093°25'0 0.0
2018-Jul-12 03:30N 30°04' W 093°25'0 0.0
2018-Jul-12 03:00N 30°04' W 093°25'0 0.0
2018-Jul-12 02:30N 30°04' W 093°25'0 0.0
2018-Jul-12 02:00N 30°04' W 093°25'0 0.0
2018-Jul-12 01:30N 30°04' W 093°25'0 0.0
2018-Jul-12 01:00N 30°04' W 093°25'0 0.0
2018-Jul-12 00:30N 30°04' W 093°25'0 0.0
2018-Jul-12 00:00N 30°04' W 093°25'0 0.0
2018-Jul-11 23:30N 30°04' W 093°25'0 0.0
2018-Jul-11 23:00N 30°04' W 093°25'0 0.0
2018-Jul-11 22:30N 30°04' W 093°25'0 0.1
2018-Jul-11 22:00N 30°04' W 093°25'0 0.0
2018-Jul-11 21:30N 30°04' W 093°25'0 0.0
2018-Jul-11 21:00N 30°04' W 093°25'0 0.0
2018-Jul-11 20:30N 30°04' W 093°25'0 0.0
2018-Jul-11 20:00N 30°04' W 093°25'0 0.0
2018-Jul-11 19:30N 30°04' W 093°25'0 0.0
2018-Jul-11 19:00N 30°04' W 093°25'0 0.0
2018-Jul-11 18:30N 30°04' W 093°25'0 0.0
2018-Jul-11 18:00N 30°04' W 093°25'0 0.0
2018-Jul-11 17:30N 30°04' W 093°25'0 0.0
2018-Jul-11 17:00N 30°04' W 093°25'0 0.0
2018-Jul-11 16:30N 30°04' W 093°25'0 0.0
2018-Jul-11 16:00N 30°04' W 093°25'0 0.0
2018-Jul-11 15:30N 30°04' W 093°25'0 0.0
2018-Jul-11 14:56N 30°04' W 093°25'0 0.0
2018-Jul-11 14:30N 30°04' W 093°25'0 0.0
2018-Jul-11 14:00N 30°04' W 093°25'0 0.0
2018-Jul-11 13:29N 30°04' W 093°25'0 0.1
2018-Jul-11 13:00N 30°04' W 093°25'1 2.2
2018-Jul-11 12:30N 30°04' W 093°27'1 2.5
2018-Jul-11 12:00N 30°04' W 093°28'1 1.3
2018-Jul-11 11:30N 30°04' W 093°29'0 0.0
2018-Jul-11 10:59N 30°04' W 093°29'0 0.1
2018-Jul-11 10:30N 30°04' W 093°29'0 0.0
2018-Jul-11 10:00N 30°04' W 093°29'0 0.0
2018-Jul-11 09:30N 30°04' W 093°29'0 0.0
2018-Jul-11 09:00N 30°04' W 093°29'0 0.0
2018-Jul-11 08:30N 30°04' W 093°29'0 0.0
2018-Jul-11 08:00N 30°04' W 093°29'0 0.0
2018-Jul-11 07:30N 30°04' W 093°29'0 0.0
2018-Jul-11 07:00N 30°04' W 093°29'0 0.0
2018-Jul-11 06:30N 30°04' W 093°29'0 0.0
2018-Jul-11 06:00N 30°04' W 093°29'0 0.0
2018-Jul-11 05:30N 30°04' W 093°29'0 0.0
2018-Jul-11 05:00N 30°04' W 093°29'0 0.0
2018-Jul-11 04:30N 30°04' W 093°29'0 0.0
2018-Jul-11 04:00N 30°04' W 093°29'0 0.0
2018-Jul-11 03:30N 30°04' W 093°29'0 0.0
2018-Jul-11 03:00N 30°04' W 093°29'0 0.0
2018-Jul-11 02:30N 30°04' W 093°29'0 0.0
2018-Jul-11 02:00N 30°04' W 093°29'0 0.0
2018-Jul-11 01:30N 30°04' W 093°29'0 0.0
2018-Jul-11 01:00N 30°04' W 093°29'0 0.0
2018-Jul-11 00:30N 30°04' W 093°29'0 0.3
2018-Jul-11 00:00N 30°04' W 093°29'0 0.6
2018-Jul-10 23:30N 30°04' W 093°29'0 0.2
2018-Jul-10 23:00N 30°04' W 093°30'0 0.4
2018-Jul-10 22:30N 30°04' W 093°30'0 0.0
2018-Jul-10 22:00N 30°04' W 093°30'0 0.0
2018-Jul-10 21:30N 30°04' W 093°30'0 0.0
2018-Jul-10 21:00N 30°04' W 093°30'0 0.0
2018-Jul-10 20:30N 30°04' W 093°30'0 0.0
2018-Jul-10 20:00N 30°04' W 093°30'0 0.0
2018-Jul-10 19:30N 30°04' W 093°30'1 1.8
2018-Jul-10 19:00N 30°04' W 093°31'4 5.1
2018-Jul-10 18:17N 30°04' W 093°35'2 5.4
2018-Jul-10 17:53N 30°04' W 093°38'2 4.7
2018-Jul-10 17:29N 30°04' W 093°40'3 5.5
2018-Jul-10 17:00N 30°03' W 093°43'2 3.5
2018-Jul-10 16:30N 30°02' W 093°44'3 5.0
2018-Jul-10 16:00N 30°00' W 093°46'3 5.7
2018-Jul-10 15:30N 29°59' W 093°49'0 0.7
2018-Jul-10 15:00N 29°59' W 093°49'0 0.5
2018-Jul-10 14:30N 29°59' W 093°50'0 0.0
2018-Jul-10 14:00N 29°59' W 093°50'0 0.0
2018-Jul-10 13:30N 29°59' W 093°50'0 0.2
2018-Jul-10 13:00N 29°59' W 093°50'0 0.3
2018-Jul-10 12:30N 29°59' W 093°50'  
Track history (hours):
 
Tides and Currents Weather Stations Pressure Air Temp Water Temp Dewpoint Dewpoint Depression Visibility Wind Speed Wind Dir Waves Ship Positions

San Salvador

Owner: Buffalo Marine Services Inc., Houston, TX. More information available from US FCC via Universal Licensing System.

Last reported at 2018-Jul-20 12:22 UTC. Time now 2018-Jul-20 16:40 UTC.
Position N 29°57' W 090°23'.

Length 25 m.

Type: Tug. MMSI: 367608470.

Date/timePositionNaut miles runAvg speedWind from/ knotsBaromVisibWave heightAir tempDewpointWater temp
2018-Jul-20 12:22N 29°57' W 090°23'0 0.0
2018-Jul-20 11:48N 29°57' W 090°23'0 0.0
2018-Jul-20 11:23N 29°57' W 090°23'  
2018-Jul-15 04:48N 29°35' W 090°37'2 5.3
2018-Jul-15 04:24N 29°36' W 090°39'2 4.9
2018-Jul-15 04:00N 29°36' W 090°41'1 2.5
2018-Jul-15 03:30N 29°36' W 090°43'2 4.0
2018-Jul-15 03:00N 29°34' W 090°43'2 3.3
2018-Jul-15 02:27N 29°33' W 090°45'0 0.1
2018-Jul-15 02:00N 29°33' W 090°45'0 0.0
2018-Jul-15 01:29N 29°33' W 090°45'0 0.0
2018-Jul-15 01:00N 29°33' W 090°45'0 0.1
2018-Jul-15 00:30N 29°33' W 090°45'0 0.4
2018-Jul-15 00:00N 29°33' W 090°45'61 3.3
2018-Jul-14 05:52N 29°51' W 091°52'2 6.1
2018-Jul-14 05:30N 29°51' W 091°55'3 5.2
2018-Jul-14 05:00N 29°50' W 091°58'3 5.2
2018-Jul-14 04:30N 29°50' W 092°00'3 5.1
2018-Jul-14 04:00N 29°49' W 092°03'2 4.8
2018-Jul-14 03:30N 29°48' W 092°06'2 4.8
2018-Jul-14 03:00N 29°47' W 092°08'2 4.3
2018-Jul-14 02:30N 29°47' W 092°11'1 2.9
2018-Jul-14 01:59N 29°47' W 092°12'1 1.6
2018-Jul-14 01:30N 29°47' W 092°13'0 0.8
2018-Jul-14 01:00N 29°48' W 092°14'0 0.3
2018-Jul-14 00:30N 29°48' W 092°14'0 0.0
2018-Jul-14 00:00N 29°48' W 092°14'0 0.1
2018-Jul-13 23:30N 29°48' W 092°14'2 3.1
2018-Jul-13 23:00N 29°48' W 092°15'2 4.8
2018-Jul-13 22:30N 29°50' W 092°18'2 3.6
2018-Jul-13 22:00N 29°50' W 092°20'41 4.2
2018-Jul-13 12:04N 29°56' W 093°07'0 3.0
2018-Jul-13 11:58N 29°56' W 093°07'2 3.6
2018-Jul-13 11:30N 29°56' W 093°09'2 3.2
2018-Jul-13 11:00N 29°57' W 093°10'2 3.4
2018-Jul-13 10:30N 29°58' W 093°12'2 3.1
2018-Jul-13 10:00N 29°60' W 093°13'2 3.5
2018-Jul-13 09:30N 30°01' W 093°14'2 3.5
2018-Jul-13 09:00N 30°02' W 093°15'2 3.3
2018-Jul-13 08:30N 30°04' W 093°16'2 3.7
2018-Jul-13 08:00N 30°05' W 093°17'1 1.8
2018-Jul-13 07:30N 30°06' W 093°18'0 0.7
2018-Jul-13 07:00N 30°06' W 093°18'0 0.2
2018-Jul-13 06:30N 30°06' W 093°18'0 0.0
2018-Jul-13 06:00N 30°06' W 093°18'0 0.0
2018-Jul-13 05:30N 30°06' W 093°18'0 0.0
2018-Jul-13 05:00N 30°06' W 093°18'0 0.0
2018-Jul-13 04:30N 30°06' W 093°18'0 0.0
2018-Jul-13 04:00N 30°06' W 093°18'0 0.6
2018-Jul-13 03:29N 30°06' W 093°19'2 3.6
2018-Jul-13 03:00N 30°05' W 093°20'2 3.6
2018-Jul-13 02:30N 30°04' W 093°22'2 3.7
2018-Jul-13 02:00N 30°04' W 093°24'1 1.4
2018-Jul-13 01:30N 30°04' W 093°25'0 0.0
2018-Jul-13 01:00N 30°04' W 093°25'0 0.0
2018-Jul-13 00:30N 30°04' W 093°25'0 0.0
2018-Jul-13 00:00N 30°04' W 093°25'0 0.0
2018-Jul-12 23:30N 30°04' W 093°25'0 0.0
2018-Jul-12 23:00N 30°04' W 093°25'0 0.0
2018-Jul-12 22:30N 30°04' W 093°25'0 0.0
2018-Jul-12 22:00N 30°04' W 093°25'0 0.0
2018-Jul-12 21:30N 30°04' W 093°25'0 0.0
2018-Jul-12 21:00N 30°04' W 093°25'0 0.0
2018-Jul-12 20:30N 30°04' W 093°25'0 0.0
2018-Jul-12 20:00N 30°04' W 093°25'0 0.0
2018-Jul-12 19:30N 30°04' W 093°25'0 0.0
2018-Jul-12 19:00N 30°04' W 093°25'0 0.0
2018-Jul-12 18:30N 30°04' W 093°25'0 0.0
2018-Jul-12 18:00N 30°04' W 093°25'0 0.0
2018-Jul-12 17:30N 30°04' W 093°25'0 0.0
2018-Jul-12 17:00N 30°04' W 093°25'0 0.0
2018-Jul-12 16:30N 30°04' W 093°25'0 0.0
2018-Jul-12 16:00N 30°04' W 093°25'0 0.1
2018-Jul-12 15:30N 30°04' W 093°25'0 0.0
2018-Jul-12 15:00N 30°04' W 093°25'0 0.0
2018-Jul-12 14:30N 30°04' W 093°25'0 0.0
2018-Jul-12 14:00N 30°04' W 093°25'0 0.0
2018-Jul-12 13:30N 30°04' W 093°25'0 0.1
2018-Jul-12 13:00N 30°04' W 093°25'1 1.3
2018-Jul-12 12:30N 30°04' W 093°25'0 0.0
2018-Jul-12 12:00N 30°04' W 093°25'0 0.0
2018-Jul-12 11:30N 30°04' W 093°25'0 0.0
2018-Jul-12 11:00N 30°04' W 093°25'0 0.0
2018-Jul-12 10:29N 30°04' W 093°25'0 0.0
2018-Jul-12 10:00N 30°04' W 093°25'0 0.0
2018-Jul-12 09:30N 30°04' W 093°25'0 0.0
2018-Jul-12 09:00N 30°04' W 093°25'0 0.0
2018-Jul-12 08:30N 30°04' W 093°25'0 0.0
2018-Jul-12 08:00N 30°04' W 093°25'0 0.0
2018-Jul-12 07:30N 30°04' W 093°25'0 0.0
2018-Jul-12 07:00N 30°04' W 093°25'0 0.0
2018-Jul-12 06:30N 30°04' W 093°25'0 0.0
2018-Jul-12 06:00N 30°04' W 093°25'0 0.0
2018-Jul-12 05:30N 30°04' W 093°25'0 0.0
2018-Jul-12 05:00N 30°04' W 093°25'0 0.0
2018-Jul-12 04:30N 30°04' W 093°25'0 0.0
2018-Jul-12 04:00N 30°04' W 093°25'0 0.0
2018-Jul-12 03:30N 30°04' W 093°25'0 0.0
2018-Jul-12 03:00N 30°04' W 093°25'0 0.0
2018-Jul-12 02:30N 30°04' W 093°25'0 0.0
2018-Jul-12 02:00N 30°04' W 093°25'0 0.0
2018-Jul-12 01:30N 30°04' W 093°25'0 0.0
2018-Jul-12 01:00N 30°04' W 093°25'0 0.0
2018-Jul-12 00:30N 30°04' W 093°25'0 0.0
2018-Jul-12 00:00N 30°04' W 093°25'0 0.0
2018-Jul-11 23:30N 30°04' W 093°25'0 0.0
2018-Jul-11 23:00N 30°04' W 093°25'0 0.0
2018-Jul-11 22:30N 30°04' W 093°25'0 0.1
2018-Jul-11 22:00N 30°04' W 093°25'0 0.0
2018-Jul-11 21:30N 30°04' W 093°25'0 0.0
2018-Jul-11 21:00N 30°04' W 093°25'0 0.0
2018-Jul-11 20:30N 30°04' W 093°25'0 0.0
2018-Jul-11 20:00N 30°04' W 093°25'0 0.0
2018-Jul-11 19:30N 30°04' W 093°25'0 0.0
2018-Jul-11 19:00N 30°04' W 093°25'0 0.0
2018-Jul-11 18:30N 30°04' W 093°25'0 0.0
2018-Jul-11 18:00N 30°04' W 093°25'0 0.0
2018-Jul-11 17:30N 30°04' W 093°25'0 0.0
2018-Jul-11 17:00N 30°04' W 093°25'0 0.0
2018-Jul-11 16:30N 30°04' W 093°25'0 0.0
2018-Jul-11 16:00N 30°04' W 093°25'0 0.0
2018-Jul-11 15:30N 30°04' W 093°25'0 0.0
2018-Jul-11 14:56N 30°04' W 093°25'0 0.0
2018-Jul-11 14:30N 30°04' W 093°25'0 0.0
2018-Jul-11 14:00N 30°04' W 093°25'0 0.0
2018-Jul-11 13:29N 30°04' W 093°25'0 0.1
2018-Jul-11 13:00N 30°04' W 093°25'1 2.2
2018-Jul-11 12:30N 30°04' W 093°27'1 2.5
2018-Jul-11 12:00N 30°04' W 093°28'1 1.3
2018-Jul-11 11:30N 30°04' W 093°29'0 0.0
2018-Jul-11 10:59N 30°04' W 093°29'0 0.1
2018-Jul-11 10:30N 30°04' W 093°29'0 0.0
2018-Jul-11 10:00N 30°04' W 093°29'0 0.0
2018-Jul-11 09:30N 30°04' W 093°29'0 0.0
2018-Jul-11 09:00N 30°04' W 093°29'0 0.0
2018-Jul-11 08:30N 30°04' W 093°29'0 0.0
2018-Jul-11 08:00N 30°04' W 093°29'0 0.0
2018-Jul-11 07:30N 30°04' W 093°29'0 0.0
2018-Jul-11 07:00N 30°04' W 093°29'0 0.0
2018-Jul-11 06:30N 30°04' W 093°29'0 0.0
2018-Jul-11 06:00N 30°04' W 093°29'0 0.0
2018-Jul-11 05:30N 30°04' W 093°29'0 0.0
2018-Jul-11 05:00N 30°04' W 093°29'0 0.0
2018-Jul-11 04:30N 30°04' W 093°29'0 0.0
2018-Jul-11 04:00N 30°04' W 093°29'0 0.0
2018-Jul-11 03:30N 30°04' W 093°29'0 0.0
2018-Jul-11 03:00N 30°04' W 093°29'0 0.0
2018-Jul-11 02:30N 30°04' W 093°29'0 0.0
2018-Jul-11 02:00N 30°04' W 093°29'0 0.0
2018-Jul-11 01:30N 30°04' W 093°29'0 0.0
2018-Jul-11 01:00N 30°04' W 093°29'0 0.0
2018-Jul-11 00:30N 30°04' W 093°29'0 0.3
2018-Jul-11 00:00N 30°04' W 093°29'0 0.6
2018-Jul-10 23:30N 30°04' W 093°29'0 0.2
2018-Jul-10 23:00N 30°04' W 093°30'0 0.4
2018-Jul-10 22:30N 30°04' W 093°30'0 0.0
2018-Jul-10 22:00N 30°04' W 093°30'0 0.0
2018-Jul-10 21:30N 30°04' W 093°30'0 0.0
2018-Jul-10 21:00N 30°04' W 093°30'0 0.0
2018-Jul-10 20:30N 30°04' W 093°30'0 0.0
2018-Jul-10 20:00N 30°04' W 093°30'0 0.0
2018-Jul-10 19:30N 30°04' W 093°30'1 1.8
2018-Jul-10 19:00N 30°04' W 093°31'4 5.1
2018-Jul-10 18:17N 30°04' W 093°35'2 5.4
2018-Jul-10 17:53N 30°04' W 093°38'2 4.7
2018-Jul-10 17:29N 30°04' W 093°40'3 5.5
2018-Jul-10 17:00N 30°03' W 093°43'2 3.5
2018-Jul-10 16:30N 30°02' W 093°44'3 5.0
2018-Jul-10 16:00N 30°00' W 093°46'3 5.7
2018-Jul-10 15:30N 29°59' W 093°49'0 0.7
2018-Jul-10 15:00N 29°59' W 093°49'0 0.5
2018-Jul-10 14:30N 29°59' W 093°50'0 0.0
2018-Jul-10 14:00N 29°59' W 093°50'0 0.0
2018-Jul-10 13:30N 29°59' W 093°50'0 0.2
2018-Jul-10 13:00N 29°59' W 093°50'0 0.3
2018-Jul-10 12:30N 29°59' W 093°50'  

Dump ship's entire track history